Thunder radar more information blitzortung!


Radar de pluja more information rain snow radar


Visita la nostra xarxa de llocs de meteo:

Template documentation
and downloads

And another site



Wind From: 11-12-2017 11:00 Until: 14:59 warning for: Wind Level: Yellow info button

Pagina Historial Weather Underground text

Diari Resum Setembre 9, 2017 Unitats:  Tant    Imperial   Mètric
« Previous Dia
SegĂźent Dia »
Diari Setmana Mensual Anual Personalitzada
  Maxima: Minima: Media:
Temperatura: 76.6 °F /  24.8 °C 54.5 °F /  12.5 °C 64.8 °F /  18.2 °C
Punt de rosada: 64.2 °F /  17.9 °C 46.8 °F /  8.2 °C 56.7 °F /  13.7 °C
Humitat: 88 % 57 % 76 %
Wind Speed: 9.7 mph /  15.6 km/h - 2.7 mph /  4.3 km/h
RĂ fegues de vent: 9.7 mph /  15.6 km/h - -
Vent:- - SSE
Pression baro: 29.8 in /  1010.0 hPa 29.6 in /  1001.9 hPa -
Precipitacions: 0.21 in /  5.3 mm    
Historical Graphs
 
 
Dades de taula per Setembre 9, 2017
Temps Temperatura Punt de rosada Pression baro Vent Wind Speed RĂ fegues de vent Humitat Rainfall Rate (Hourly)
00:03 66.7 °F /  19.3 °C 53.2 °F /  11.8 °C 29.8 in /  1010.0 hPa SW 1.4 mph /  2.3 km/h 1.4 mph /  2.3 km/h 62 % 0 in /  0.0 mm
00:04 66.7 °F /  19.3 °C 53.2 °F /  11.8 °C 29.8 in /  1010.0 hPa SW 1.4 mph /  2.3 km/h 1.4 mph /  2.3 km/h 62 % 0 in /  0.0 mm
00:05 65.1 °F /  18.4 °C 56.1 °F /  13.4 °C 29.7 in /  1006.0 hPa Calm   3 mph /  4.8 km/h 73 % 0 in /  0.0 mm
00:09 66.7 °F /  19.3 °C 53.2 °F /  11.8 °C 29.8 in /  1009.0 hPa Calm     62 % 0 in /  0.0 mm
00:15 65.3 °F /  18.5 °C 56.5 °F /  13.6 °C 29.7 in /  1006.0 hPa Calm   1 mph /  1.6 km/h 73 % 0 in /  0.0 mm
00:25 65.3 °F /  18.5 °C 56.5 °F /  13.6 °C 29.7 in /  1006.0 hPa Calm   3 mph /  4.8 km/h 73 % 0 in /  0.0 mm
00:35 65.3 °F /  18.5 °C 56.5 °F /  13.6 °C 29.7 in /  1006.0 hPa NNE 3 mph /  4.8 km/h 3 mph /  4.8 km/h 73 % 0 in /  0.0 mm
00:45 65.5 °F /  18.6 °C 56.7 °F /  13.7 °C 29.7 in /  1006.0 hPa North 1 mph /  1.6 km/h 2 mph /  3.2 km/h 73 % 0 in /  0.0 mm
00:55 65.5 °F /  18.6 °C 56.7 °F /  13.7 °C 29.7 in /  1006.0 hPa Calm   1 mph /  1.6 km/h 73 % 0 in /  0.0 mm
01:05 65.5 °F /  18.6 °C 56.7 °F /  13.7 °C 29.7 in /  1006.0 hPa Calm   3 mph /  4.8 km/h 73 % 0 in /  0.0 mm
01:15 65.5 °F /  18.6 °C 56.7 °F /  13.7 °C 29.7 in /  1006.0 hPa Calm   2 mph /  3.2 km/h 73 % 0 in /  0.0 mm
01:25 65.5 °F /  18.6 °C 56.7 °F /  13.7 °C 29.7 in /  1006.0 hPa NNE 2 mph /  3.2 km/h 3 mph /  4.8 km/h 73 % 0 in /  0.0 mm
01:35 65.5 °F /  18.6 °C 57 °F /  13.9 °C 29.7 in /  1006.0 hPa North 1 mph /  1.6 km/h 2 mph /  3.2 km/h 74 % 0 in /  0.0 mm
01:45 65.5 °F /  18.6 °C 56.7 °F /  13.7 °C 29.7 in /  1005.0 hPa NNE 2 mph /  3.2 km/h 4 mph /  6.4 km/h 73 % 0 in /  0.0 mm
01:55 65.5 °F /  18.6 °C 56.7 °F /  13.7 °C 29.6 in /  1003.9 hPa NNE 1 mph /  1.6 km/h 3 mph /  4.8 km/h 73 % 0 in /  0.0 mm
02:05 65.3 °F /  18.5 °C 56.8 °F /  13.8 °C 29.6 in /  1003.9 hPa North 1 mph /  1.6 km/h 2 mph /  3.2 km/h 74 % 0 in /  0.0 mm
02:15 65.1 °F /  18.4 °C 56.7 °F /  13.7 °C 29.6 in /  1003.9 hPa NNE 2 mph /  3.2 km/h 2 mph /  3.2 km/h 74 % 0 in /  0.0 mm
02:25 64.9 °F /  18.3 °C 56.5 °F /  13.6 °C 29.6 in /  1003.9 hPa NNE 2 mph /  3.2 km/h 4 mph /  6.4 km/h 74 % 0 in /  0.0 mm
02:35 64.8 °F /  18.2 °C 56.3 °F /  13.5 °C 29.6 in /  1003.9 hPa NE 2 mph /  3.2 km/h 3 mph /  4.8 km/h 74 % 0 in /  0.0 mm
02:45 64.8 °F /  18.2 °C 56.7 °F /  13.7 °C 29.6 in /  1003.9 hPa NE 1 mph /  1.6 km/h 3 mph /  4.8 km/h 75 % 0 in /  0.0 mm
02:55 64.8 °F /  18.2 °C 56.3 °F /  13.5 °C 29.6 in /  1003.9 hPa ENE 1 mph /  1.6 km/h 4 mph /  6.4 km/h 74 % 0 in /  0.0 mm
03:05 64.9 °F /  18.3 °C 56.5 °F /  13.6 °C 29.6 in /  1003.9 hPa NNE 1 mph /  1.6 km/h 2 mph /  3.2 km/h 74 % 0 in /  0.0 mm
03:15 65.1 °F /  18.4 °C 57 °F /  13.9 °C 29.6 in /  1003.9 hPa NE 1 mph /  1.6 km/h 3 mph /  4.8 km/h 75 % 0 in /  0.0 mm
03:25 65.1 °F /  18.4 °C 57 °F /  13.9 °C 29.6 in /  1003.9 hPa NNE 3 mph /  4.8 km/h 3 mph /  4.8 km/h 75 % 0 in /  0.0 mm
03:35 65.1 °F /  18.4 °C 57 °F /  13.9 °C 29.6 in /  1003.9 hPa North 3 mph /  4.8 km/h 4 mph /  6.4 km/h 75 % 0 in /  0.0 mm
03:45 64.9 °F /  18.3 °C 56.5 °F /  13.6 °C 29.6 in /  1002.9 hPa North 5 mph /  8.0 km/h 6 mph /  9.7 km/h 74 % 0 in /  0.0 mm
03:55 64.9 °F /  18.3 °C 56.5 °F /  13.6 °C 29.6 in /  1003.9 hPa NNE 5 mph /  8.0 km/h 5 mph /  8.0 km/h 74 % 0 in /  0.0 mm
04:05 65.3 °F /  18.5 °C 56.8 °F /  13.8 °C 29.6 in /  1003.9 hPa NNE 3 mph /  4.8 km/h 5 mph /  8.0 km/h 74 % 0 in /  0.0 mm
04:15 65.3 °F /  18.5 °C 56.8 °F /  13.8 °C 29.6 in /  1003.9 hPa NNE 3 mph /  4.8 km/h 4 mph /  6.4 km/h 74 % 0 in /  0.0 mm
04:25 65.7 °F /  18.7 °C 57 °F /  13.9 °C 29.6 in /  1003.9 hPa North 2 mph /  3.2 km/h 3 mph /  4.8 km/h 74 % 0 in /  0.0 mm
04:35 65.8 °F /  18.8 °C 56.8 °F /  13.8 °C 29.6 in /  1003.9 hPa North 1 mph /  1.6 km/h 4 mph /  6.4 km/h 73 % 0 in /  0.0 mm
04:45 66 °F /  18.9 °C 57 °F /  13.9 °C 29.6 in /  1003.9 hPa NNE 3 mph /  4.8 km/h 5 mph /  8.0 km/h 73 % 0 in /  0.0 mm
04:55 66.4 °F /  19.1 °C 57 °F /  13.9 °C 29.6 in /  1003.9 hPa NNE 2 mph /  3.2 km/h 2 mph /  3.2 km/h 72 % 0 in /  0.0 mm
05:05 66.9 °F /  19.4 °C 57.6 °F /  14.2 °C 29.6 in /  1003.9 hPa North 1 mph /  1.6 km/h 3 mph /  4.8 km/h 72 % 0 in /  0.0 mm
05:15 67.6 °F /  19.8 °C 58.3 °F /  14.6 °C 29.6 in /  1003.9 hPa NNE 1 mph /  1.6 km/h 3 mph /  4.8 km/h 72 % 0 in /  0.0 mm
05:25 68.7 °F /  20.4 °C 58.8 °F /  14.9 °C 29.6 in /  1003.9 hPa NE 1 mph /  1.6 km/h 3 mph /  4.8 km/h 71 % 0 in /  0.0 mm
10:25 68.7 °F /  20.4 °C 58.8 °F /  14.9 °C 29.6 in /  1003.9 hPa NE 2.9 mph /  4.7 km/h 2.9 mph /  4.7 km/h 71 % 0 in /  0.0 mm
10:30 70 °F /  21.1 °C 59.4 °F /  15.2 °C 29.6 in /  1003.9 hPa ENE 1.2 mph /  1.9 km/h 1.2 mph /  1.9 km/h 69 % 0 in /  0.0 mm
10:35 70 °F /  21.1 °C 59.7 °F /  15.4 °C 29.6 in /  1003.9 hPa NNW 2.3 mph /  3.7 km/h 2.3 mph /  3.7 km/h 70 % 0 in /  0.0 mm
10:40 70.5 °F /  21.4 °C 60.3 °F /  15.7 °C 29.6 in /  1003.9 hPa NNW 2.9 mph /  4.7 km/h 2.9 mph /  4.7 km/h 70 % 0 in /  0.0 mm
10:45 71.2 °F /  21.8 °C 60.4 °F /  15.8 °C 29.6 in /  1003.9 hPa ENE 3.5 mph /  5.6 km/h 3.5 mph /  5.6 km/h 69 % 0 in /  0.0 mm
10:50 72 °F /  22.2 °C 60.4 °F /  15.8 °C 29.6 in /  1003.9 hPa North 2.3 mph /  3.7 km/h 2.3 mph /  3.7 km/h 67 % 0 in /  0.0 mm
10:55 72.9 °F /  22.7 °C 61.7 °F /  16.5 °C 29.6 in /  1003.9 hPa North 1.6 mph /  2.6 km/h 1.6 mph /  2.6 km/h 68 % 0 in /  0.0 mm
11:00 72.9 °F /  22.7 °C 61.3 °F /  16.3 °C 29.6 in /  1003.9 hPa ENE 5.8 mph /  9.3 km/h 5.8 mph /  9.3 km/h 67 % 0 in /  0.0 mm
11:05 72.7 °F /  22.6 °C 61.2 °F /  16.2 °C 29.6 in /  1003.9 hPa NNE 2.3 mph /  3.7 km/h 2.3 mph /  3.7 km/h 67 % 0 in /  0.0 mm
11:10 73.4 °F /  23.0 °C 61.9 °F /  16.6 °C 29.6 in /  1002.9 hPa East 4.6 mph /  7.4 km/h 4.6 mph /  7.4 km/h 67 % 0 in /  0.0 mm
11:15 73.4 °F /  23.0 °C 61.9 °F /  16.6 °C 29.6 in /  1002.9 hPa NE 4.6 mph /  7.4 km/h 4.6 mph /  7.4 km/h 67 % 0 in /  0.0 mm
11:20 74.1 °F /  23.4 °C 62.4 °F /  16.9 °C 29.6 in /  1002.9 hPa NE 5.4 mph /  8.7 km/h 5.4 mph /  8.7 km/h 67 % 0 in /  0.0 mm
11:25 73.8 °F /  23.2 °C 62.1 °F /  16.7 °C 29.6 in /  1002.9 hPa NNE 4.6 mph /  7.4 km/h 4.6 mph /  7.4 km/h 67 % 0 in /  0.0 mm
11:30 74.8 °F /  23.8 °C 63.1 °F /  17.3 °C 29.6 in /  1002.9 hPa NNE 3.5 mph /  5.6 km/h 3.5 mph /  5.6 km/h 67 % 0 in /  0.0 mm
11:35 74.8 °F /  23.8 °C 63.7 °F /  17.6 °C 29.6 in /  1002.9 hPa East 3.5 mph /  5.6 km/h 3.5 mph /  5.6 km/h 68 % 0 in /  0.0 mm
11:40 74.8 °F /  23.8 °C 63.7 °F /  17.6 °C 29.6 in /  1002.9 hPa East 3.6 mph /  5.8 km/h 3.6 mph /  5.8 km/h 68 % 0 in /  0.0 mm
11:45 74.8 °F /  23.8 °C 63.1 °F /  17.3 °C 29.6 in /  1002.9 hPa NNE 3.5 mph /  5.6 km/h 3.5 mph /  5.6 km/h 67 % 0 in /  0.0 mm
11:50 75 °F /  23.9 °C 63.3 °F /  17.4 °C 29.6 in /  1002.9 hPa NE 2.4 mph /  3.9 km/h 2.4 mph /  3.9 km/h 67 % 0 in /  0.0 mm
11:55 75.2 °F /  24.0 °C 63.1 °F /  17.3 °C 29.6 in /  1002.9 hPa NNE 3.3 mph /  5.3 km/h 3.3 mph /  5.3 km/h 66 % 0 in /  0.0 mm
12:00 75 °F /  23.9 °C 63.3 °F /  17.4 °C 29.6 in /  1002.9 hPa ENE 2.3 mph /  3.7 km/h 2.4 mph /  3.9 km/h 67 % 0 in /  0.0 mm
12:05 75 °F /  23.9 °C 63.3 °F /  17.4 °C 29.6 in /  1002.9 hPa East 3.6 mph /  5.8 km/h 3.6 mph /  5.8 km/h 67 % 0 in /  0.0 mm
12:10 75 °F /  23.9 °C 63.3 °F /  17.4 °C 29.6 in /  1002.9 hPa ENE 3.5 mph /  5.6 km/h 3.5 mph /  5.6 km/h 67 % 0 in /  0.0 mm
12:15 75.4 °F /  24.1 °C 63.1 °F /  17.3 °C 29.6 in /  1002.9 hPa NNE 2.3 mph /  3.7 km/h   66 % 0 in /  0.0 mm
12:20 76.3 °F /  24.6 °C 64 °F /  17.8 °C 29.6 in /  1002.9 hPa Calm     66 % 0 in /  0.0 mm
12:25 76.5 °F /  24.7 °C 64.2 °F /  17.9 °C 29.6 in /  1001.9 hPa West 2.6 mph /  4.2 km/h 2.6 mph /  4.2 km/h 66 % 0 in /  0.0 mm
12:30 76.6 °F /  24.8 °C 64 °F /  17.8 °C 29.6 in /  1001.9 hPa NW 1.2 mph /  1.9 km/h   65 % 0 in /  0.0 mm
12:35 76.6 °F /  24.8 °C 64 °F /  17.8 °C 29.6 in /  1001.9 hPa SW 3.5 mph /  5.6 km/h 3.6 mph /  5.8 km/h 65 % 0 in /  0.0 mm
12:40 76.1 °F /  24.5 °C 62.6 °F /  17.0 °C 29.6 in /  1001.9 hPa WSW 5.8 mph /  9.3 km/h 5.8 mph /  9.3 km/h 63 % 0 in /  0.0 mm
12:45 75.9 °F /  24.4 °C 62.1 °F /  16.7 °C 29.6 in /  1001.9 hPa South 3.5 mph /  5.6 km/h 3.5 mph /  5.6 km/h 62 % 0 in /  0.0 mm
12:50 75.7 °F /  24.3 °C 61.3 °F /  16.3 °C 29.6 in /  1001.9 hPa WSW 3.5 mph /  5.6 km/h 3.5 mph /  5.6 km/h 61 % 0 in /  0.0 mm
12:55 75.7 °F /  24.3 °C 61.3 °F /  16.3 °C 29.6 in /  1001.9 hPa WSW 8.1 mph /  13.0 km/h 8.1 mph /  13.0 km/h 61 % 0 in /  0.0 mm
13:00 75.4 °F /  24.1 °C 60.4 °F /  15.8 °C 29.6 in /  1001.9 hPa West 6.4 mph /  10.3 km/h 6.4 mph /  10.3 km/h 60 % 0 in /  0.0 mm
13:05 75 °F /  23.9 °C 60.6 °F /  15.9 °C 29.6 in /  1001.9 hPa SW 4.6 mph /  7.4 km/h 4.6 mph /  7.4 km/h 61 % 0 in /  0.0 mm
13:10 74.8 °F /  23.8 °C 60.4 °F /  15.8 °C 29.6 in /  1001.9 hPa SW 8.1 mph /  13.0 km/h 8.1 mph /  13.0 km/h 61 % 0 in /  0.0 mm
13:15 74.5 °F /  23.6 °C 60.1 °F /  15.6 °C 29.6 in /  1001.9 hPa West 4.6 mph /  7.4 km/h 4.6 mph /  7.4 km/h 61 % 0 in /  0.0 mm
13:20 74.5 °F /  23.6 °C 59.7 °F /  15.4 °C 29.6 in /  1001.9 hPa WNW 9.7 mph /  15.6 km/h 9.7 mph /  15.6 km/h 60 % 0 in /  0.0 mm
13:25 74.3 °F /  23.5 °C 59.5 °F /  15.3 °C 29.6 in /  1001.9 hPa WNW 6.9 mph /  11.1 km/h 6.9 mph /  11.1 km/h 60 % 0 in /  0.0 mm
13:30 74.3 °F /  23.5 °C 59.5 °F /  15.3 °C 29.6 in /  1001.9 hPa West 5.9 mph /  9.5 km/h 5.9 mph /  9.5 km/h 60 % 0 in /  0.0 mm
13:35 74.3 °F /  23.5 °C 59.5 °F /  15.3 °C 29.6 in /  1001.9 hPa West 5.8 mph /  9.3 km/h 5.8 mph /  9.3 km/h 60 % 0 in /  0.0 mm
13:40 74.1 °F /  23.4 °C 59.4 °F /  15.2 °C 29.6 in /  1001.9 hPa West 9.2 mph /  14.8 km/h 9.2 mph /  14.8 km/h 60 % 0 in /  0.0 mm
13:45 74.3 °F /  23.5 °C 59.5 °F /  15.3 °C 29.6 in /  1001.9 hPa NW 5.8 mph /  9.3 km/h 5.8 mph /  9.3 km/h 60 % 0 in /  0.0 mm
13:50 74.3 °F /  23.5 °C 59 °F /  15.0 °C 29.6 in /  1001.9 hPa SSW 3.5 mph /  5.6 km/h 3.5 mph /  5.6 km/h 59 % 0 in /  0.0 mm
13:55 74.3 °F /  23.5 °C 59 °F /  15.0 °C 29.6 in /  1001.9 hPa WSW 5.8 mph /  9.3 km/h 5.8 mph /  9.3 km/h 59 % 0 in /  0.0 mm
14:00 73.6 °F /  23.1 °C 57.9 °F /  14.4 °C 29.6 in /  1001.9 hPa West 8.1 mph /  13.0 km/h 8.1 mph /  13.0 km/h 58 % 0 in /  0.0 mm
14:05 72.9 °F /  22.7 °C 57.2 °F /  14.0 °C 29.6 in /  1001.9 hPa WSW 5.8 mph /  9.3 km/h 5.8 mph /  9.3 km/h 58 % 0 in /  0.0 mm
14:10 72.7 °F /  22.6 °C 57 °F /  13.9 °C 29.6 in /  1002.9 hPa WSW 5.4 mph /  8.7 km/h 5.4 mph /  8.7 km/h 58 % 0 in /  0.0 mm
14:15 72.1 °F /  22.3 °C 56.1 °F /  13.4 °C 29.6 in /  1002.9 hPa NW 5.8 mph /  9.3 km/h 5.8 mph /  9.3 km/h 57 % 0 in /  0.0 mm
14:20 72 °F /  22.2 °C 55.9 °F /  13.3 °C 29.6 in /  1002.9 hPa South 3.5 mph /  5.6 km/h 3.5 mph /  5.6 km/h 57 % 0 in /  0.0 mm
14:25 72.1 °F /  22.3 °C 56.1 °F /  13.4 °C 29.6 in /  1002.9 hPa WSW 6 mph /  9.7 km/h 6 mph /  9.7 km/h 57 % 0 in /  0.0 mm
14:30 72 °F /  22.2 °C 55.9 °F /  13.3 °C 29.6 in /  1002.9 hPa NNW 5.6 mph /  9.0 km/h 5.6 mph /  9.0 km/h 57 % 0 in /  0.0 mm
14:36 71.4 °F /  21.9 °C 55.9 °F /  13.3 °C 29.6 in /  1002.9 hPa WNW 4.6 mph /  7.4 km/h 4.6 mph /  7.4 km/h 58 % 0 in /  0.0 mm
14:41 70.9 °F /  21.6 °C 55.4 °F /  13.0 °C 29.6 in /  1003.9 hPa WNW 6.9 mph /  11.1 km/h 6.9 mph /  11.1 km/h 58 % 0 in /  0.0 mm
14:46 70.3 °F /  21.3 °C 55.2 °F /  12.9 °C 29.6 in /  1003.9 hPa WSW 5.8 mph /  9.3 km/h 5.8 mph /  9.3 km/h 59 % 0 in /  0.0 mm
14:51 69.3 °F /  20.7 °C 55.2 °F /  12.9 °C 29.6 in /  1003.9 hPa West 5.8 mph /  9.3 km/h 5.8 mph /  9.3 km/h 61 % 0 in /  0.0 mm
14:56 68.7 °F /  20.4 °C 55.2 °F /  12.9 °C 29.6 in /  1003.9 hPa NW 4.6 mph /  7.4 km/h 4.6 mph /  7.4 km/h 62 % 0 in /  0.0 mm
15:01 68 °F /  20.0 °C 55.4 °F /  13.0 °C 29.6 in /  1003.9 hPa NE 3.5 mph /  5.6 km/h 3.5 mph /  5.6 km/h 64 % 0 in /  0.0 mm
15:06 67.6 °F /  19.8 °C 55.6 °F /  13.1 °C 29.6 in /  1003.9 hPa SW 4.6 mph /  7.4 km/h 4.6 mph /  7.4 km/h 65 % 0 in /  0.0 mm
15:11 66.9 °F /  19.4 °C 55.6 °F /  13.1 °C 29.6 in /  1003.9 hPa SSW 2.4 mph /  3.9 km/h 2.4 mph /  3.9 km/h 67 % 0 in /  0.0 mm
15:16 66.6 °F /  19.2 °C 55.8 °F /  13.2 °C 29.6 in /  1003.9 hPa WNW 3.5 mph /  5.6 km/h 3.5 mph /  5.6 km/h 68 % 0 in /  0.0 mm
15:21 66 °F /  18.9 °C 55.9 °F /  13.3 °C 29.6 in /  1003.9 hPa South 2.6 mph /  4.2 km/h   70 % 0 in /  0.0 mm
15:26 65.7 °F /  18.7 °C 56.5 °F /  13.6 °C 29.6 in /  1003.9 hPa WNW 1.2 mph /  1.9 km/h 1.2 mph /  1.9 km/h 72 % 0 in /  0.0 mm
15:31 65.3 °F /  18.5 °C 56.5 °F /  13.6 °C 29.6 in /  1003.9 hPa ENE 2.6 mph /  4.2 km/h 2.6 mph /  4.2 km/h 73 % 0 in /  0.0 mm
15:36 64.9 °F /  18.3 °C 56.8 °F /  13.8 °C 29.6 in /  1003.9 hPa SE 2.3 mph /  3.7 km/h 2.3 mph /  3.7 km/h 75 % 0 in /  0.0 mm
15:41 64.8 °F /  18.2 °C 56.7 °F /  13.7 °C 29.6 in /  1003.9 hPa ESE 1.4 mph /  2.3 km/h   75 % 0.04 in /  1.0 mm
15:46 64.4 °F /  18.0 °C 56.3 °F /  13.5 °C 29.6 in /  1003.9 hPa East 2.3 mph /  3.7 km/h 2.3 mph /  3.7 km/h 75 % 0.04 in /  1.0 mm
15:51 64.6 °F /  18.1 °C 56.8 °F /  13.8 °C 29.6 in /  1003.9 hPa SW 2.3 mph /  3.7 km/h 2.3 mph /  3.7 km/h 76 % 0.04 in /  1.0 mm
15:56 64.6 °F /  18.1 °C 57.2 °F /  14.0 °C 29.6 in /  1002.9 hPa ESE 2.4 mph /  3.9 km/h 2.4 mph /  3.9 km/h 77 % 0.04 in /  1.0 mm
16:01 64.4 °F /  18.0 °C 57 °F /  13.9 °C 29.6 in /  1002.9 hPa NE 1.6 mph /  2.6 km/h   77 % 0.04 in /  1.0 mm
16:06 64.2 °F /  17.9 °C 57.2 °F /  14.0 °C 29.6 in /  1003.9 hPa SW 1.2 mph /  1.9 km/h 1.2 mph /  1.9 km/h 78 % 0.09 in /  2.3 mm
16:11 64.2 °F /  17.9 °C 57.2 °F /  14.0 °C 29.6 in /  1003.9 hPa SW 1.2 mph /  1.9 km/h 1.2 mph /  1.9 km/h 78 % 0.09 in /  2.3 mm
16:16 64 °F /  17.8 °C 57 °F /  13.9 °C 29.6 in /  1003.9 hPa SW 1.2 mph /  1.9 km/h   78 % 0.09 in /  2.3 mm
16:21 63.9 °F /  17.7 °C 56.8 °F /  13.8 °C 29.6 in /  1003.9 hPa WSW 2.3 mph /  3.7 km/h 2.3 mph /  3.7 km/h 78 % 0.09 in /  2.3 mm
16:26 63.5 °F /  17.5 °C 56.5 °F /  13.6 °C 29.6 in /  1003.9 hPa WSW 2.3 mph /  3.7 km/h 2.3 mph /  3.7 km/h 78 % 0.09 in /  2.3 mm
16:31 63.9 °F /  17.7 °C 57.2 °F /  14.0 °C 29.6 in /  1003.9 hPa SW 2.3 mph /  3.7 km/h 2.3 mph /  3.7 km/h 79 % 0.09 in /  2.3 mm
16:36 63.7 °F /  17.6 °C 57 °F /  13.9 °C 29.6 in /  1003.9 hPa WSW 2.3 mph /  3.7 km/h 2.3 mph /  3.7 km/h 79 % 0.08 in /  2.0 mm
16:41 63.5 °F /  17.5 °C 56.8 °F /  13.8 °C 29.6 in /  1003.9 hPa WSW 2.3 mph /  3.7 km/h 2.3 mph /  3.7 km/h 79 % 0.08 in /  2.0 mm
16:46 63.3 °F /  17.4 °C 56.7 °F /  13.7 °C 29.6 in /  1003.9 hPa WNW 2.3 mph /  3.7 km/h 2.3 mph /  3.7 km/h 79 % 0.08 in /  2.0 mm
16:51 62.8 °F /  17.1 °C 56.1 °F /  13.4 °C 29.6 in /  1003.9 hPa NNW 2.9 mph /  4.7 km/h 2.9 mph /  4.7 km/h 79 % 0.13 in /  3.3 mm
16:56 62.6 °F /  17.0 °C 55.9 °F /  13.3 °C 29.6 in /  1003.9 hPa WSW 3.5 mph /  5.6 km/h 3.5 mph /  5.6 km/h 79 % 0.13 in /  3.3 mm
17:01 62.2 °F /  16.8 °C 55.6 °F /  13.1 °C 29.6 in /  1003.9 hPa WNW 4.6 mph /  7.4 km/h 4.6 mph /  7.4 km/h 79 % 0.13 in /  3.3 mm
17:06 62.1 °F /  16.7 °C 55.8 °F /  13.2 °C 29.6 in /  1003.9 hPa SW 3.5 mph /  5.6 km/h 3.5 mph /  5.6 km/h 80 % 0.08 in /  2.0 mm
17:11 61.9 °F /  16.6 °C 55.6 °F /  13.1 °C 29.6 in /  1003.9 hPa West 2.4 mph /  3.9 km/h 2.4 mph /  3.9 km/h 80 % 0.12 in /  3.0 mm
17:16 61.9 °F /  16.6 °C 55.9 °F /  13.3 °C 29.6 in /  1003.9 hPa WNW 1.2 mph /  1.9 km/h   81 % 0.12 in /  3.0 mm
17:21 62.1 °F /  16.7 °C 56.1 °F /  13.4 °C 29.6 in /  1003.9 hPa SW 2 mph /  3.2 km/h 2 mph /  3.2 km/h 81 % 0.12 in /  3.0 mm
17:26 62.1 °F /  16.7 °C 56.8 °F /  13.8 °C 29.6 in /  1003.9 hPa Calm     83 % 0.12 in /  3.0 mm
17:31 62.4 °F /  16.9 °C 57.6 °F /  14.2 °C 29.6 in /  1003.9 hPa SW 1.2 mph /  1.9 km/h   84 % 0.12 in /  3.0 mm
17:36 62.1 °F /  16.7 °C 56.8 °F /  13.8 °C 29.6 in /  1003.9 hPa West 3.5 mph /  5.6 km/h 3.5 mph /  5.6 km/h 83 % 0.09 in /  2.3 mm
17:41 61.9 °F /  16.6 °C 56.3 °F /  13.5 °C 29.6 in /  1003.9 hPa WSW 2.3 mph /  3.7 km/h 2.3 mph /  3.7 km/h 82 % 0.09 in /  2.3 mm
17:42 62.1 °F /  16.7 °C 56.5 °F /  13.6 °C 29.6 in /  1003.9 hPa West 2.3 mph /  3.7 km/h 2.3 mph /  3.7 km/h 82 % 0.09 in /  2.3 mm
17:47 62.2 °F /  16.8 °C 56.7 °F /  13.7 °C 29.6 in /  1003.9 hPa Calm     82 % 0.09 in /  2.3 mm
17:52 62.4 °F /  16.9 °C 57.2 °F /  14.0 °C 29.6 in /  1003.9 hPa West 1.2 mph /  1.9 km/h   83 % 0.04 in /  1.0 mm
17:57 62.8 °F /  17.1 °C 57.6 °F /  14.2 °C 29.6 in /  1003.9 hPa NNE 1.2 mph /  1.9 km/h 1.2 mph /  1.9 km/h 83 % 0.04 in /  1.0 mm
18:02 63.1 °F /  17.3 °C 58.3 °F /  14.6 °C 29.6 in /  1003.9 hPa Calm     84 % 0.04 in /  1.0 mm
18:07 63 °F /  17.2 °C 57.7 °F /  14.3 °C 29.6 in /  1003.9 hPa Calm     83 % 0.04 in /  1.0 mm
18:12 63.3 °F /  17.4 °C 58.1 °F /  14.5 °C 29.6 in /  1003.9 hPa Calm     83 % 0 in /  0.0 mm
18:17 63.5 °F /  17.5 °C 58.3 °F /  14.6 °C 29.6 in /  1003.9 hPa SW 2 mph /  3.2 km/h 2 mph /  3.2 km/h 83 % 0 in /  0.0 mm
18:22 63.5 °F /  17.5 °C 58.3 °F /  14.6 °C 29.6 in /  1003.9 hPa SW 1.4 mph /  2.3 km/h 1.4 mph /  2.3 km/h 83 % 0 in /  0.0 mm
18:27 63.7 °F /  17.6 °C 58.5 °F /  14.7 °C 29.6 in /  1003.9 hPa Calm     83 % 0 in /  0.0 mm
18:32 63.5 °F /  17.5 °C 58.3 °F /  14.6 °C 29.6 in /  1003.9 hPa Calm     83 % 0 in /  0.0 mm
18:37 63.3 °F /  17.4 °C 57.7 °F /  14.3 °C 29.6 in /  1002.9 hPa Calm     82 % 0 in /  0.0 mm
18:42 63.3 °F /  17.4 °C 58.1 °F /  14.5 °C 29.6 in /  1002.9 hPa Calm     83 % 0 in /  0.0 mm
18:47 63.3 °F /  17.4 °C 57.7 °F /  14.3 °C 29.6 in /  1002.9 hPa SW 1.4 mph /  2.3 km/h   82 % 0 in /  0.0 mm
18:48 63.3 °F /  17.4 °C 57.7 °F /  14.3 °C 29.6 in /  1002.9 hPa SW 1.4 mph /  2.3 km/h   82 % 0 in /  0.0 mm
18:53 63.3 °F /  17.4 °C 57.7 °F /  14.3 °C 29.6 in /  1002.9 hPa SW 1.2 mph /  1.9 km/h 1.4 mph /  2.3 km/h 82 % 0 in /  0.0 mm
18:58 63.3 °F /  17.4 °C 58.1 °F /  14.5 °C 29.6 in /  1002.9 hPa SW 1.2 mph /  1.9 km/h   83 % 0 in /  0.0 mm
19:03 63.3 °F /  17.4 °C 58.1 °F /  14.5 °C 29.6 in /  1002.9 hPa SW 2.3 mph /  3.7 km/h 2.3 mph /  3.7 km/h 83 % 0 in /  0.0 mm
19:08 63.1 °F /  17.3 °C 58.3 °F /  14.6 °C 29.6 in /  1002.9 hPa SW 1.4 mph /  2.3 km/h   84 % 0 in /  0.0 mm
19:13 63.1 °F /  17.3 °C 58.3 °F /  14.6 °C 29.6 in /  1002.9 hPa Calm     84 % 0 in /  0.0 mm
19:18 63.1 °F /  17.3 °C 57.9 °F /  14.4 °C 29.6 in /  1002.9 hPa SW 2.3 mph /  3.7 km/h 2.3 mph /  3.7 km/h 83 % 0 in /  0.0 mm
19:23 62.8 °F /  17.1 °C 57.6 °F /  14.2 °C 29.6 in /  1002.9 hPa SW 1.2 mph /  1.9 km/h   83 % 0 in /  0.0 mm
19:25 58.3 °F /  14.6 °C 52.9 °F /  11.6 °C 29.6 in /  1003.9 hPa ENE 1 mph /  1.6 km/h   82 % 0 in /  0.0 mm
19:28 62.8 °F /  17.1 °C 57.6 °F /  14.2 °C 29.6 in /  1002.9 hPa SW 1.2 mph /  1.9 km/h 1.2 mph /  1.9 km/h 83 % 0 in /  0.0 mm
19:33 62.6 °F /  17.0 °C 57.4 °F /  14.1 °C 29.6 in /  1002.9 hPa SW 1.2 mph /  1.9 km/h   83 % 0 in /  0.0 mm
19:35 58.3 °F /  14.6 °C 52.9 °F /  11.6 °C 29.6 in /  1003.9 hPa NE 1 mph /  1.6 km/h 2 mph /  3.2 km/h 82 % 0 in /  0.0 mm
19:38 62.4 °F /  16.9 °C 57.6 °F /  14.2 °C 29.6 in /  1002.9 hPa Calm     84 % 0 in /  0.0 mm
19:43 62.2 °F /  16.8 °C 57.4 °F /  14.1 °C 29.6 in /  1002.9 hPa Calm     84 % 0 in /  0.0 mm
19:45 58.1 °F /  14.5 °C 52.5 °F /  11.4 °C 29.6 in /  1003.9 hPa Calm     82 % 0 in /  0.0 mm
19:48 62.2 °F /  16.8 °C 57.4 °F /  14.1 °C 29.6 in /  1002.9 hPa Calm     84 % 0 in /  0.0 mm
19:53 62.2 °F /  16.8 °C 57.4 °F /  14.1 °C 29.6 in /  1002.9 hPa ENE 2.3 mph /  3.7 km/h 2.3 mph /  3.7 km/h 84 % 0 in /  0.0 mm
19:55 57.7 °F /  14.3 °C 52.5 °F /  11.4 °C 29.6 in /  1003.9 hPa NNE 1 mph /  1.6 km/h 2 mph /  3.2 km/h 83 % 0 in /  0.0 mm
19:58 62.1 °F /  16.7 °C 57.6 °F /  14.2 °C 29.6 in /  1002.9 hPa ENE 3.5 mph /  5.6 km/h 3.5 mph /  5.6 km/h 85 % 0 in /  0.0 mm
20:03 61.9 °F /  16.6 °C 57 °F /  13.9 °C 29.6 in /  1002.9 hPa ENE 3.5 mph /  5.6 km/h 3.5 mph /  5.6 km/h 84 % 0 in /  0.0 mm
20:05 57.6 °F /  14.2 °C 52.3 °F /  11.3 °C 29.6 in /  1003.9 hPa Calm     83 % 0 in /  0.0 mm
20:08 61.9 °F /  16.6 °C 57 °F /  13.9 °C 29.6 in /  1002.9 hPa ENE 1.2 mph /  1.9 km/h 1.2 mph /  1.9 km/h 84 % 0 in /  0.0 mm
20:13 61.9 °F /  16.6 °C 57 °F /  13.9 °C 29.6 in /  1002.9 hPa NE 4.3 mph /  6.9 km/h 4.3 mph /  6.9 km/h 84 % 0 in /  0.0 mm
20:15 57.4 °F /  14.1 °C 52.3 °F /  11.3 °C 29.6 in /  1003.9 hPa Calm   1 mph /  1.6 km/h 83 % 0 in /  0.0 mm
20:18 61.9 °F /  16.6 °C 57.4 °F /  14.1 °C 29.6 in /  1002.9 hPa East 4.6 mph /  7.4 km/h 4.6 mph /  7.4 km/h 85 % 0 in /  0.0 mm
20:23 61.9 °F /  16.6 °C 57.4 °F /  14.1 °C 29.6 in /  1002.9 hPa NE 3.6 mph /  5.8 km/h 3.6 mph /  5.8 km/h 85 % 0 in /  0.0 mm
20:25 57.4 °F /  14.1 °C 52.3 °F /  11.3 °C 29.7 in /  1005.0 hPa WNW 1 mph /  1.6 km/h 2 mph /  3.2 km/h 83 % 0 in /  0.0 mm
20:28 61.9 °F /  16.6 °C 57.4 °F /  14.1 °C 29.6 in /  1002.9 hPa NNE 3.5 mph /  5.6 km/h 3.5 mph /  5.6 km/h 85 % 0 in /  0.0 mm
20:33 61.7 °F /  16.5 °C 57 °F /  13.9 °C 29.6 in /  1002.9 hPa NNE 4.6 mph /  7.4 km/h 4.6 mph /  7.4 km/h 85 % 0 in /  0.0 mm
20:35 57.2 °F /  14.0 °C 52.2 °F /  11.2 °C 29.7 in /  1005.0 hPa Calm     83 % 0 in /  0.0 mm
20:38 61.7 °F /  16.5 °C 57 °F /  13.9 °C 29.6 in /  1002.9 hPa ENE 4.6 mph /  7.4 km/h 4.6 mph /  7.4 km/h 85 % 0 in /  0.0 mm
20:43 61.5 °F /  16.4 °C 57 °F /  13.9 °C 29.6 in /  1002.9 hPa NE 3.8 mph /  6.1 km/h 3.8 mph /  6.1 km/h 85 % 0 in /  0.0 mm
20:45 57.2 °F /  14.0 °C 52.2 °F /  11.2 °C 29.7 in /  1005.0 hPa West 2 mph /  3.2 km/h 2 mph /  3.2 km/h 83 % 0 in /  0.0 mm
20:48 61.5 °F /  16.4 °C 57.4 °F /  14.1 °C 29.6 in /  1002.9 hPa ESE 2.3 mph /  3.7 km/h 2.4 mph /  3.9 km/h 86 % 0 in /  0.0 mm
20:53 61.5 °F /  16.4 °C 57.4 °F /  14.1 °C 29.6 in /  1003.9 hPa ENE 4.6 mph /  7.4 km/h 4.6 mph /  7.4 km/h 86 % 0 in /  0.0 mm
20:55 56.8 °F /  13.8 °C 52.2 °F /  11.2 °C 29.7 in /  1005.0 hPa Calm   2 mph /  3.2 km/h 84 % 0 in /  0.0 mm
20:58 61.5 °F /  16.4 °C 57.4 °F /  14.1 °C 29.6 in /  1003.9 hPa North 2.4 mph /  3.9 km/h 2.4 mph /  3.9 km/h 86 % 0 in /  0.0 mm
21:03 61.7 °F /  16.5 °C 57.6 °F /  14.2 °C 29.6 in /  1003.9 hPa North 5.8 mph /  9.3 km/h 5.8 mph /  9.3 km/h 86 % 0 in /  0.0 mm
21:05 56.7 °F /  13.7 °C 52 °F /  11.1 °C 29.7 in /  1005.0 hPa Calm   2 mph /  3.2 km/h 84 % 0 in /  0.0 mm
21:08 61.7 °F /  16.5 °C 57.7 °F /  14.3 °C 29.6 in /  1003.9 hPa ENE 5.8 mph /  9.3 km/h 5.8 mph /  9.3 km/h 87 % 0 in /  0.0 mm
21:13 61.5 °F /  16.4 °C 57.6 °F /  14.2 °C 29.6 in /  1003.9 hPa East 4.9 mph /  7.9 km/h 4.9 mph /  7.9 km/h 87 % 0 in /  0.0 mm
21:15 56.5 °F /  13.6 °C 51.6 °F /  10.9 °C 29.7 in /  1005.0 hPa SW 1 mph /  1.6 km/h 1 mph /  1.6 km/h 84 % 0 in /  0.0 mm
21:18 61.5 °F /  16.4 °C 57.6 °F /  14.2 °C 29.6 in /  1003.9 hPa ESE 7.8 mph /  12.6 km/h 7.8 mph /  12.6 km/h 87 % 0 in /  0.0 mm
21:23 61.3 °F /  16.3 °C 57.4 °F /  14.1 °C 29.6 in /  1003.9 hPa East 4.6 mph /  7.4 km/h 4.6 mph /  7.4 km/h 87 % 0 in /  0.0 mm
21:25 56.1 °F /  13.4 °C 51.6 °F /  10.9 °C 29.7 in /  1005.0 hPa Calm   1 mph /  1.6 km/h 85 % 0 in /  0.0 mm
21:28 61.3 °F /  16.3 °C 57.7 °F /  14.3 °C 29.6 in /  1003.9 hPa ENE 4.6 mph /  7.4 km/h 4.6 mph /  7.4 km/h 88 % 0 in /  0.0 mm
21:33 61.3 °F /  16.3 °C 57.7 °F /  14.3 °C 29.6 in /  1003.9 hPa East 2.3 mph /  3.7 km/h 2.3 mph /  3.7 km/h 88 % 0 in /  0.0 mm
21:35 55.8 °F /  13.2 °C 51.1 °F /  10.6 °C 29.7 in /  1005.0 hPa SW 1 mph /  1.6 km/h 3 mph /  4.8 km/h 84 % 0 in /  0.0 mm
21:38 61.2 °F /  16.2 °C 57.6 °F /  14.2 °C 29.6 in /  1003.9 hPa ESE 4.7 mph /  7.6 km/h 4.7 mph /  7.6 km/h 88 % 0 in /  0.0 mm
21:43 61 °F /  16.1 °C 57 °F /  13.9 °C 29.6 in /  1003.9 hPa ENE 6.9 mph /  11.1 km/h 6.9 mph /  11.1 km/h 87 % 0 in /  0.0 mm
21:45 55.6 °F /  13.1 °C 50.7 °F /  10.4 °C 29.7 in /  1005.0 hPa Calm   2 mph /  3.2 km/h 84 % 0 in /  0.0 mm
21:48 60.8 °F /  16.0 °C 56.7 °F /  13.7 °C 29.6 in /  1003.9 hPa NE 4.6 mph /  7.4 km/h 4.6 mph /  7.4 km/h 86 % 0 in /  0.0 mm
21:53 60.8 °F /  16.0 °C 56.7 °F /  13.7 °C 29.6 in /  1003.9 hPa ENE 4.6 mph /  7.4 km/h 4.6 mph /  7.4 km/h 86 % 0 in /  0.0 mm
21:54 60.8 °F /  16.0 °C 56.7 °F /  13.7 °C 29.6 in /  1003.9 hPa ENE 4.6 mph /  7.4 km/h 4.6 mph /  7.4 km/h 86 % 0 in /  0.0 mm
21:55 56.1 °F /  13.4 °C 50.7 °F /  10.4 °C 29.7 in /  1005.0 hPa WSW 2 mph /  3.2 km/h 4 mph /  6.4 km/h 82 % 0 in /  0.0 mm
21:59 60.6 °F /  15.9 °C 56.5 °F /  13.6 °C 29.6 in /  1003.9 hPa NNE 4.6 mph /  7.4 km/h 4.6 mph /  7.4 km/h 86 % 0 in /  0.0 mm
22:04 60.6 °F /  15.9 °C 56.5 °F /  13.6 °C 29.6 in /  1003.9 hPa ENE 3.5 mph /  5.6 km/h 3.5 mph /  5.6 km/h 86 % 0 in /  0.0 mm
22:05 56.5 °F /  13.6 °C 50.4 °F /  10.2 °C 29.7 in /  1005.0 hPa West 1 mph /  1.6 km/h 3 mph /  4.8 km/h 80 % 0 in /  0.0 mm
22:09 60.4 °F /  15.8 °C 55.9 °F /  13.3 °C 29.7 in /  1005.0 hPa East 2.9 mph /  4.7 km/h 2.9 mph /  4.7 km/h 85 % 0 in /  0.0 mm
22:14 60.6 °F /  15.9 °C 56.1 °F /  13.4 °C 29.7 in /  1005.0 hPa East 3.5 mph /  5.6 km/h 3.5 mph /  5.6 km/h 85 % 0 in /  0.0 mm
22:15 56.5 °F /  13.6 °C 50 °F /  10.0 °C 29.7 in /  1005.0 hPa West 1 mph /  1.6 km/h 3 mph /  4.8 km/h 79 % 0 in /  0.0 mm
22:19 60.4 °F /  15.8 °C 55.6 °F /  13.1 °C 29.7 in /  1005.0 hPa NE 3.5 mph /  5.6 km/h 3.5 mph /  5.6 km/h 84 % 0 in /  0.0 mm
22:24 60.4 °F /  15.8 °C 55.6 °F /  13.1 °C 29.7 in /  1005.0 hPa ENE 2.3 mph /  3.7 km/h 2.3 mph /  3.7 km/h 84 % 0 in /  0.0 mm
22:25 56.5 °F /  13.6 °C 49.5 °F /  9.7 °C 29.7 in /  1005.0 hPa Calm   1 mph /  1.6 km/h 77 % 0 in /  0.0 mm
22:29 60.4 °F /  15.8 °C 55.6 °F /  13.1 °C 29.7 in /  1005.0 hPa ENE 3.5 mph /  5.6 km/h 3.5 mph /  5.6 km/h 84 % 0 in /  0.0 mm
22:34 60.4 °F /  15.8 °C 55.6 °F /  13.1 °C 29.7 in /  1005.0 hPa ENE 3.3 mph /  5.3 km/h 3.3 mph /  5.3 km/h 84 % 0 in /  0.0 mm
22:35 56.8 °F /  13.8 °C 49.5 °F /  9.7 °C 29.7 in /  1005.0 hPa West 2 mph /  3.2 km/h 2 mph /  3.2 km/h 76 % 0 in /  0.0 mm
22:39 60.3 °F /  15.7 °C 55.4 °F /  13.0 °C 29.7 in /  1005.0 hPa NNE 3.1 mph /  5.0 km/h 3.1 mph /  5.0 km/h 84 % 0 in /  0.0 mm
22:44 60.3 °F /  15.7 °C 55.4 °F /  13.0 °C 29.7 in /  1005.0 hPa NE 4.6 mph /  7.4 km/h 4.6 mph /  7.4 km/h 84 % 0 in /  0.0 mm
22:45 56.5 °F /  13.6 °C 48.9 °F /  9.4 °C 29.7 in /  1005.0 hPa Calm   2 mph /  3.2 km/h 76 % 0 in /  0.0 mm
22:49 59.9 °F /  15.5 °C 54.7 °F /  12.6 °C 29.7 in /  1005.0 hPa ENE 3.5 mph /  5.6 km/h 3.5 mph /  5.6 km/h 83 % 0 in /  0.0 mm
22:54 59.9 °F /  15.5 °C 54.3 °F /  12.4 °C 29.7 in /  1005.0 hPa NNE 4.6 mph /  7.4 km/h 4.6 mph /  7.4 km/h 82 % 0 in /  0.0 mm
22:55 55.9 °F /  13.3 °C 48 °F /  8.9 °C 29.7 in /  1005.0 hPa Calm     75 % 0 in /  0.0 mm
22:59 59.9 °F /  15.5 °C 54.3 °F /  12.4 °C 29.7 in /  1005.0 hPa Calm     82 % 0 in /  0.0 mm
23:04 59.9 °F /  15.5 °C 54.3 °F /  12.4 °C 29.7 in /  1005.0 hPa ENE 2.3 mph /  3.7 km/h 2.3 mph /  3.7 km/h 82 % 0 in /  0.0 mm
23:05 55.8 °F /  13.2 °C 48 °F /  8.9 °C 29.7 in /  1005.0 hPa WSW 1 mph /  1.6 km/h 3 mph /  4.8 km/h 75 % 0 in /  0.0 mm
23:09 59.7 °F /  15.4 °C 54.1 °F /  12.3 °C 29.7 in /  1005.0 hPa ESE 4.6 mph /  7.4 km/h 4.6 mph /  7.4 km/h 82 % 0 in /  0.0 mm
23:14 59.7 °F /  15.4 °C 54.1 °F /  12.3 °C 29.7 in /  1005.0 hPa ESE 4.6 mph /  7.4 km/h 4.6 mph /  7.4 km/h 82 % 0 in /  0.0 mm
23:15 55.6 °F /  13.1 °C 48 °F /  8.9 °C 29.7 in /  1005.0 hPa WSW 1 mph /  1.6 km/h 2 mph /  3.2 km/h 76 % 0 in /  0.0 mm
23:19 59.7 °F /  15.4 °C 54.1 °F /  12.3 °C 29.7 in /  1005.0 hPa SSE 1.2 mph /  1.9 km/h   82 % 0 in /  0.0 mm
23:24 59.5 °F /  15.3 °C 54 °F /  12.2 °C 29.7 in /  1005.0 hPa East 2.9 mph /  4.7 km/h 2.9 mph /  4.7 km/h 82 % 0 in /  0.0 mm
23:25 54.9 °F /  12.7 °C 47.5 °F /  8.6 °C 29.7 in /  1005.0 hPa Calm   2 mph /  3.2 km/h 76 % 0 in /  0.0 mm
23:29 59.4 °F /  15.2 °C 54 °F /  12.2 °C 29.7 in /  1005.0 hPa ESE 3.5 mph /  5.6 km/h 3.5 mph /  5.6 km/h 82 % 0 in /  0.0 mm
23:34 59.2 °F /  15.1 °C 53.8 °F /  12.1 °C 29.7 in /  1005.0 hPa NNW 3.5 mph /  5.6 km/h 3.5 mph /  5.6 km/h 82 % 0 in /  0.0 mm
23:35 54.9 °F /  12.7 °C 47.1 °F /  8.4 °C 29.7 in /  1005.0 hPa WSW 2 mph /  3.2 km/h 3 mph /  4.8 km/h 75 % 0 in /  0.0 mm
23:39 59.2 °F /  15.1 °C 53.8 °F /  12.1 °C 29.7 in /  1005.0 hPa WNW 2.2 mph /  3.5 km/h   82 % 0 in /  0.0 mm
23:44 59 °F /  15.0 °C 53.8 °F /  12.1 °C 29.7 in /  1005.0 hPa ENE 2.3 mph /  3.7 km/h 2.3 mph /  3.7 km/h 83 % 0 in /  0.0 mm
23:45 54.9 °F /  12.7 °C 47.1 °F /  8.4 °C 29.7 in /  1005.0 hPa WSW 1 mph /  1.6 km/h 2 mph /  3.2 km/h 75 % 0 in /  0.0 mm
23:49 58.8 °F /  14.9 °C 53.2 °F /  11.8 °C 29.7 in /  1005.0 hPa NE 4.6 mph /  7.4 km/h 4.6 mph /  7.4 km/h 82 % 0 in /  0.0 mm
23:54 58.6 °F /  14.8 °C 53.2 °F /  11.8 °C 29.7 in /  1005.0 hPa NNW 1.2 mph /  1.9 km/h   82 % 0 in /  0.0 mm
23:55 54.5 °F /  12.5 °C 46.8 °F /  8.2 °C 29.7 in /  1005.0 hPa WSW 1 mph /  1.6 km/h 2 mph /  3.2 km/h 75 % 0 in /  0.0 mm
23:59 58.5 °F /  14.7 °C 53.2 °F /  11.8 °C 29.7 in /  1005.0 hPa NE 2.3 mph /  3.7 km/h 2.3 mph /  3.7 km/h 83 % 0 in /  0.0 mm
Meteo Sesrovires
Elogis d' Weather Underground - 3.75 mb

Guio original per  Jim McMurry - jmcmurry@mwt.net Adaptat per a la plantilla per  Wim van der Kuil - Leuven-Template.eu

Trobareu la nostra informacio del temps tambe a:

Weather Underground

AWEKAS